| time (UTC) | temp F | wind direction | speed MPH | gust MPH | rain 1hr in | rain 24hr in | rain mn in | humidity % | barometer mb |
| 20260903160003 | 73 | 176 | 2.0 | 15.0 | 0.00 | 0.00 | 0.00 | 19 | 1020.8 |
| 20260903155457 | 73 | 134 | 10.0 | 10.0 | 0.00 | 0.00 | 0.00 | 19 | 1020.4 |
| 20260903154953 | 72 | 0 | 1.0 | 12.0 | 0.00 | 0.00 | 0.00 | 18 | 1020.4 |
| 20260903154448 | 72 | 135 | 5.0 | 13.0 | 0.00 | 0.00 | 0.00 | 19 | 1020.6 |
| 20260903153944 | 72 | 148 | 5.0 | 10.0 | 0.00 | 0.00 | 0.00 | 19 | 1020.6 |
| 20260903153440 | 72 | 117 | 2.0 | 10.0 | 0.00 | 0.00 | 0.00 | 21 | 1020.5 |
| 20260903152936 | 72 | 161 | 2.0 | 9.0 | 0.00 | 0.00 | 0.00 | 22 | 1020.5 |
| 20260903152432 | 72 | 185 | 2.0 | 15.0 | 0.00 | 0.00 | 0.00 | 22 | 1020.6 |
| 20260903151927 | 72 | 160 | 1.0 | 3.0 | 0.00 | 0.00 | 0.00 | 23 | 1020.8 |
| 20260903151427 | 71 | 180 | 0.0 | 7.0 | 0.00 | 0.00 | 0.00 | 23 | 1020.9 |
| 20260903150921 | 71 | 158 | 0.0 | 6.0 | 0.00 | 0.00 | 0.00 | 23 | 1021.0 |
| 20260903150417 | 71 | 144 | 2.0 | 10.0 | 0.00 | 0.00 | 0.00 | 21 | 1020.8 |
| 20260903145917 | 71 | 111 | 6.0 | 9.0 | 0.00 | 0.00 | 0.00 | 22 | 1020.8 |
| 20260903145412 | 70 | 115 | 2.0 | 4.0 | 0.00 | 0.00 | 0.00 | 23 | 1020.8 |
| 20260903144912 | 70 | 122 | 4.0 | 6.0 | 0.00 | 0.00 | 0.00 | 23 | 1020.6 |
| 20260903144406 | 68 | 203 | 2.0 | 5.0 | 0.00 | 0.00 | 0.00 | 26 | 1020.8 |
| 20260903143901 | 64 | 81 | 0.0 | 1.0 | 0.00 | 0.00 | 0.00 | 35 | 1020.5 |
| 20260903143359 | 60 | 41 | 2.0 | 2.0 | 0.00 | 0.00 | 0.00 | 38 | 1020.4 |
| 20260903142859 | 60 | 352 | 0.0 | 0.0 | 0.00 | 0.00 | 0.00 | 39 | 1020.5 |
| 20260903142354 | 60 | 0 | 0.0 | 1.0 | 0.00 | 0.00 | 0.00 | 39 | 1020.5 |
| 20260903141850 | 60 | 81 | 0.0 | 1.0 | 0.00 | 0.00 | 0.00 | 39 | 1020.5 |
| 20260903141346 | 58 | 54 | 0.0 | 2.0 | 0.00 | 0.00 | 0.00 | 42 | 1020.5 |
| 20260903140841 | 57 | 26 | 1.0 | 2.0 | 0.00 | 0.00 | 0.00 | 41 | 1020.5 |
| 20260903140336 | 57 | 60 | 1.0 | 2.0 | 0.00 | 0.00 | 0.00 | 42 | 1020.5 |
| 20260903135832 | 57 | 31 | 3.0 | 3.0 | 0.00 | 0.00 | 0.00 | 44 | 1020.4 |
| 20260903135327 | 55 | 49 | 0.0 | 2.0 | 0.00 | 0.00 | 0.00 | 45 | 1020.5 |
| 20260903134826 | 55 | 24 | 2.0 | 3.0 | 0.00 | 0.00 | 0.00 | 45 | 1020.5 |
| 20260903134322 | 55 | 23 | 2.0 | 3.0 | 0.00 | 0.00 | 0.00 | 47 | 1020.5 |
| 20260903133820 | 55 | 20 | 1.0 | 2.0 | 0.00 | 0.00 | 0.00 | 43 | 1020.2 |
| 20260903133316 | 55 | 66 | 0.0 | 2.0 | 0.00 | 0.00 | 0.00 | 45 | 1020.1 |
| 20260903132815 | 55 | 6 | 0.0 | 2.0 | 0.00 | 0.00 | 0.00 | 43 | 1020.3 |
| 20260903132311 | 56 | 69 | 0.0 | 4.0 | 0.00 | 0.00 | 0.00 | 42 | 1020.2 |
| 20260903131806 | 56 | 23 | 0.0 | 3.0 | 0.00 | 0.00 | 0.00 | 41 | 1020.1 |
| 20260903131305 | 57 | 37 | 2.0 | 3.0 | 0.00 | 0.00 | 0.00 | 41 | 1020.0 |
| 20260903130800 | 57 | 78 | 0.0 | 3.0 | 0.00 | 0.00 | 0.00 | 38 | 1020.0 |
| 20260903130255 | 56 | 0 | 0.0 | 5.0 | 0.00 | 0.00 | 0.00 | 38 | 1019.8 |
| 20260903125753 | 55 | 32 | 0.0 | 3.0 | 0.00 | 0.00 | 0.00 | 44 | 1019.7 |
| 20260903125249 | 55 | 26 | 1.0 | 3.0 | 0.00 | 0.00 | 0.00 | 43 | 1019.8 |
| 20260903124748 | 55 | 26 | 0.0 | 3.0 | 0.00 | 0.00 | 0.00 | 41 | 1019.6 |
| 20260903124244 | 54 | 59 | 0.0 | 2.0 | 0.00 | 0.00 | 0.00 | 45 | 1019.7 |
| 20260903123742 | 55 | 60 | 2.0 | 3.0 | 0.00 | 0.00 | 0.00 | 42 | 1019.7 |
| 20260903123242 | 55 | 119 | 2.0 | 3.0 | 0.00 | 0.00 | 0.00 | 43 | 1020.1 |
| 20260903122740 | 55 | 126 | 3.0 | 3.0 | 0.00 | 0.00 | 0.00 | 42 | 1019.7 |
| 20260903122235 | 54 | 116 | 0.0 | 3.0 | 0.00 | 0.00 | 0.00 | 43 | 1019.7 |
| 20260903121734 | 54 | 60 | 1.0 | 2.0 | 0.00 | 0.00 | 0.00 | 45 | 1019.5 |
| 20260903121230 | 53 | 19 | 2.0 | 3.0 | 0.00 | 0.00 | 0.00 | 44 | 1019.7 |
| 20260903120730 | 53 | 21 | 2.0 | 3.0 | 0.00 | 0.00 | 0.00 | 46 | 1019.7 |
| 20260903120224 | 53 | 28 | 2.0 | 3.0 | 0.00 | 0.00 | 0.00 | 47 | 1019.7 |
| 20260903115723 | 54 | 53 | 3.0 | 3.0 | 0.00 | 0.00 | 0.00 | 47 | 1019.5 |
| 20260903115219 | 54 | 32 | 2.0 | 2.0 | 0.00 | 0.00 | 0.00 | 45 | 1019.8 |
| 20260903114718 | 54 | 22 | 3.0 | 3.0 | 0.00 | 0.00 | 0.00 | 42 | 1019.5 |
| 20260903114214 | 54 | 8 | 0.0 | 1.0 | 0.00 | 0.00 | 0.00 | 45 | 1019.7 |
| 20260903113708 | 55 | 32 | 3.0 | 3.0 | 0.00 | 0.00 | 0.00 | 42 | 1019.7 |
| 20260903113205 | 54 | 21 | 2.0 | 2.0 | 0.00 | 0.00 | 0.00 | 45 | 1019.7 |
| 20260903112700 | 54 | 60 | 1.0 | 2.0 | 0.00 | 0.00 | 0.00 | 46 | 1019.6 |
| 20260903112155 | 55 | 77 | 1.0 | 3.0 | 0.00 | 0.00 | 0.00 | 46 | 1019.7 |
| 20260903111654 | 55 | 30 | 2.0 | 2.0 | 0.00 | 0.00 | 0.00 | 46 | 1019.3 |
| 20260903111150 | 55 | 22 | 3.0 | 3.0 | 0.00 | 0.00 | 0.00 | 45 | 1019.6 |
| 20260903110646 | 55 | 60 | 0.0 | 1.0 | 0.00 | 0.00 | 0.00 | 45 | 1019.4 |
| 20260903110142 | 55 | 126 | 1.0 | 2.0 | 0.00 | 0.00 | 0.00 | 43 | 1019.6 |
| 20260903105631 | 57 | 24 | 2.0 | 3.0 | 0.00 | 0.00 | 0.00 | 43 | 1019.4 |
| 20260903105126 | 57 | 28 | 3.0 | 4.0 | 0.00 | 0.00 | 0.00 | 38 | 1019.5 |
| 20260903104625 | 56 | 13 | 3.0 | 3.0 | 0.00 | 0.00 | 0.00 | 41 | 1019.4 |
| 20260903104121 | 56 | 19 | 3.0 | 4.0 | 0.00 | 0.00 | 0.00 | 42 | 1019.5 |
| 20260903103616 | 57 | 66 | 1.0 | 3.0 | 0.00 | 0.00 | 0.00 | 39 | 1019.3 |
| 20260903103113 | 57 | 32 | 3.0 | 3.0 | 0.00 | 0.00 | 0.00 | 42 | 1019.5 |
| 20260903102608 | 58 | 6 | 0.0 | 2.0 | 0.00 | 0.00 | 0.00 | 38 | 1019.2 |
| 20260903102107 | 59 | 54 | 0.0 | 3.0 | 0.00 | 0.00 | 0.00 | 37 | 1018.9 |
| 20260903101607 | 59 | 31 | 3.0 | 3.0 | 0.00 | 0.00 | 0.00 | 35 | 1019.4 |
| 20260903101103 | 60 | 30 | 2.0 | 3.0 | 0.00 | 0.00 | 0.00 | 34 | 1019.3 |
| 20260903100602 | 61 | 20 | 0.0 | 2.0 | 0.00 | 0.00 | 0.00 | 30 | 1019.0 |
| 20260903095559 | 61 | 0 | 0.0 | 1.0 | 0.00 | 0.00 | 0.00 | 30 | 1019.2 |
| 20260903095054 | 61 | 352 | 0.0 | 1.0 | 0.00 | 0.00 | 0.00 | 28 | 1019.3 |
| 20260903094554 | 62 | 60 | 0.0 | 3.0 | 0.00 | 0.00 | 0.00 | 28 | 1019.2 |
| 20260903094050 | 62 | 7 | 1.0 | 2.0 | 0.00 | 0.00 | 0.00 | 28 | 1019.3 |
| 20260903093545 | 62 | 21 | 2.0 | 2.0 | 0.00 | 0.00 | 0.00 | 29 | 1018.9 |
| 20260903093040 | 62 | 320 | 2.0 | 2.0 | 0.00 | 0.00 | 0.00 | 29 | 1018.9 |
| 20260903092534 | 62 | 70 | 0.0 | 2.0 | 0.00 | 0.00 | 0.00 | 29 | 1018.9 |
| 20260903092029 | 63 | 29 | 1.0 | 2.0 | 0.00 | 0.00 | 0.00 | 32 | 1019.2 |
| 20260903091527 | 62 | 30 | 0.0 | 3.0 | 0.00 | 0.00 | 0.00 | 32 | 1019.0 |
| 20260903091026 | 62 | 90 | 0.0 | 2.0 | 0.00 | 0.00 | 0.00 | 34 | 1019.0 |
| 20260903090523 | 62 | 20 | 0.0 | 2.0 | 0.00 | 0.00 | 0.00 | 35 | 1019.0 |
| 20260903090021 | 62 | 99 | 0.0 | 2.0 | 0.00 | 0.00 | 0.00 | 36 | 1019.0 |
| 20260903085519 | 63 | 41 | 0.0 | 2.0 | 0.00 | 0.00 | 0.00 | 36 | 1018.8 |
| 20260903085015 | 64 | 98 | 0.0 | 4.0 | 0.00 | 0.00 | 0.00 | 34 | 1019.2 |
| 20260903084514 | 64 | 71 | 0.0 | 3.0 | 0.00 | 0.00 | 0.00 | 33 | 1019.3 |
| 20260903084008 | 64 | 68 | 2.0 | 2.0 | 0.00 | 0.00 | 0.00 | 33 | 1019.2 |
| 20260903083504 | 64 | 337 | 0.0 | 2.0 | 0.00 | 0.00 | 0.00 | 35 | 1019.2 |
| 20260903083004 | 65 | 7 | 1.0 | 1.0 | 0.00 | 0.00 | 0.00 | 33 | 1019.0 |
| 20260903082459 | 66 | 0 | 0.0 | 2.0 | 0.00 | 0.00 | 0.00 | 32 | 1019.2 |
| 20260903081954 | 67 | 145 | 3.0 | 3.0 | 0.00 | 0.00 | 0.00 | 30 | 1019.2 |
| 20260903081449 | 67 | 99 | 2.0 | 4.0 | 0.00 | 0.00 | 0.00 | 29 | 1018.9 |
| 20260903080945 | 68 | 165 | 0.0 | 3.0 | 0.00 | 0.00 | 0.00 | 30 | 1019.3 |
| 20260903080441 | 68 | 114 | 2.0 | 5.0 | 0.00 | 0.00 | 0.00 | 29 | 1018.7 |
| 20260903075937 | 68 | 120 | 0.0 | 4.0 | 0.00 | 0.00 | 0.00 | 31 | 1019.0 |
| 20260903075432 | 68 | 98 | 1.0 | 3.0 | 0.00 | 0.00 | 0.00 | 31 | 1018.9 |
| 20260903074927 | 68 | 101 | 3.0 | 4.0 | 0.00 | 0.00 | 0.00 | 31 | 1018.8 |
| 20260903074426 | 69 | 114 | 1.0 | 5.0 | 0.00 | 0.00 | 0.00 | 29 | 1018.8 |
| 20260903073921 | 69 | 156 | 2.0 | 3.0 | 0.00 | 0.00 | 0.00 | 26 | 1018.8 |
| 20260903073416 | 70 | 133 | 3.0 | 9.0 | 0.00 | 0.00 | 0.00 | 24 | 1018.6 |
| 20260903072912 | 70 | 143 | 5.0 | 9.0 | 0.00 | 0.00 | 0.00 | 25 | 1018.7 |
| 20260903072408 | 70 | 125 | 3.0 | 8.0 | 0.00 | 0.00 | 0.00 | 26 | 1018.8 |
| 20260903071905 | 70 | 118 | 3.0 | 6.0 | 0.00 | 0.00 | 0.00 | 24 | 1018.9 |
| 20260903071400 | 70 | 119 | 0.0 | 5.0 | 0.00 | 0.00 | 0.00 | 23 | 1018.7 |
| 20260903070856 | 71 | 121 | 4.0 | 7.0 | 0.00 | 0.00 | 0.00 | 22 | 1018.5 |
| 20260903070351 | 70 | 145 | 1.0 | 5.0 | 0.00 | 0.00 | 0.00 | 24 | 1018.6 |
| 20260903065845 | 71 | 286 | 1.0 | 7.0 | 0.00 | 0.00 | 0.00 | 24 | 1018.6 |
| 20260903065345 | 71 | 150 | 2.0 | 8.0 | 0.00 | 0.00 | 0.00 | 24 | 1018.5 |
| 20260903064844 | 71 | 101 | 2.0 | 8.0 | 0.00 | 0.00 | 0.00 | 23 | 1018.7 |
| 20260903064340 | 71 | 195 | 2.0 | 9.0 | 0.00 | 0.00 | 0.00 | 23 | 1018.7 |
| 20260903063836 | 71 | 144 | 0.0 | 6.0 | 0.00 | 0.00 | 0.00 | 23 | 1018.7 |
| 20260903063331 | 71 | 152 | 3.0 | 5.0 | 0.00 | 0.00 | 0.00 | 22 | 1018.6 |
| 20260903062826 | 71 | 198 | 4.0 | 7.0 | 0.00 | 0.00 | 0.00 | 21 | 1018.2 |
| 20260903062326 | 72 | 142 | 0.0 | 13.0 | 0.00 | 0.00 | 0.00 | 22 | 1018.1 |
| 20260903061822 | 71 | 203 | 5.0 | 15.0 | 0.00 | 0.00 | 0.00 | 23 | 1018.0 |
| 20260903061315 | 72 | 155 | 3.0 | 9.0 | 0.00 | 0.00 | 0.00 | 24 | 1018.0 |
| 20260903060812 | 72 | 173 | 4.0 | 5.0 | 0.00 | 0.00 | 0.00 | 24 | 1017.9 |
| 20260903060310 | 72 | 148 | 4.0 | 8.0 | 0.00 | 0.00 | 0.00 | 24 | 1017.9 |
| 20260903055808 | 72 | 191 | 4.0 | 13.0 | 0.00 | 0.00 | 0.00 | 25 | 1017.8 |
| 20260903055307 | 72 | 123 | 2.0 | 15.0 | 0.00 | 0.00 | 0.00 | 26 | 1017.9 |
| 20260903054802 | 72 | 270 | 4.0 | 6.0 | 0.00 | 0.00 | 0.00 | 26 | 1018.0 |
| 20260903054302 | 72 | 257 | 2.0 | 7.0 | 0.00 | 0.00 | 0.00 | 25 | 1018.0 |
| 20260903053759 | 72 | 153 | 4.0 | 12.0 | 0.00 | 0.00 | 0.00 | 25 | 1017.8 |
| 20260903053254 | 72 | 127 | 3.0 | 6.0 | 0.00 | 0.00 | 0.00 | 25 | 1017.7 |
| 20260903052749 | 73 | 146 | 6.0 | 7.0 | 0.00 | 0.00 | 0.00 | 25 | 1017.7 |
| 20260903052245 | 73 | 144 | 2.0 | 8.0 | 0.00 | 0.00 | 0.00 | 24 | 1018.0 |
| 20260903051740 | 73 | 111 | 3.0 | 9.0 | 0.00 | 0.00 | 0.00 | 25 | 1018.0 |
| 20260903051230 | 73 | 120 | 1.0 | 4.0 | 0.00 | 0.00 | 0.00 | 26 | 1017.9 |
| 20260903050726 | 73 | 139 | 2.0 | 10.0 | 0.00 | 0.00 | 0.00 | 26 | 1017.9 |
| 20260903050224 | 73 | 143 | 3.0 | 9.0 | 0.00 | 0.00 | 0.00 | 27 | 1017.8 |
| 20260903045720 | 73 | 126 | 5.0 | 18.0 | 0.00 | 0.00 | 0.00 | 25 | 1017.8 |
| 20260903045216 | 74 | 133 | 5.0 | 11.0 | 0.00 | 0.00 | 0.00 | 23 | 1018.1 |
| 20260903044712 | 73 | 180 | 0.0 | 10.0 | 0.00 | 0.00 | 0.00 | 25 | 1018.0 |
| 20260903044207 | 74 | 164 | 0.0 | 7.0 | 0.00 | 0.00 | 0.00 | 28 | 1018.1 |
| 20260903043704 | 74 | 166 | 4.0 | 9.0 | 0.00 | 0.00 | 0.00 | 24 | 1017.9 |
| 20260903043203 | 74 | 228 | 5.0 | 8.0 | 0.00 | 0.00 | 0.00 | 24 | 1017.9 |
| 20260903042702 | 74 | 240 | 3.0 | 13.0 | 0.00 | 0.00 | 0.00 | 25 | 1017.8 |
| 20260903042157 | 73 | 112 | 7.0 | 14.0 | 0.00 | 0.00 | 0.00 | 26 | 1017.8 |
| 20260903041654 | 74 | 130 | 3.0 | 7.0 | 0.00 | 0.00 | 0.00 | 28 | 1017.9 |
| 20260903041148 | 74 | 117 | 0.0 | 7.0 | 0.00 | 0.00 | 0.00 | 30 | 1017.8 |
| 20260903040648 | 74 | 119 | 6.0 | 8.0 | 0.00 | 0.00 | 0.00 | 25 | 1017.9 |
| 20260903040144 | 74 | 180 | 2.0 | 6.0 | 0.00 | 0.00 | 0.00 | 24 | 1017.7 |
| 20260903035639 | 74 | 128 | 2.0 | 9.0 | 0.00 | 0.00 | 0.00 | 24 | 1017.5 |
| 20260903035130 | 74 | 203 | 1.0 | 5.0 | 0.00 | 0.00 | 0.00 | 26 | 1017.7 |
| 20260903034630 | 74 | 128 | 5.0 | 6.0 | 0.00 | 0.00 | 0.00 | 27 | 1017.5 |
| 20260903034125 | 74 | 117 | 0.0 | 7.0 | 0.00 | 0.00 | 0.00 | 26 | 1017.7 |
| 20260903033620 | 74 | 180 | 1.0 | 7.0 | 0.00 | 0.00 | 0.00 | 28 | 1017.5 |
| 20260903033115 | 74 | 126 | 0.0 | 3.0 | 0.00 | 0.00 | 0.00 | 29 | 1017.5 |
| 20260903032610 | 74 | 180 | 1.0 | 3.0 | 0.00 | 0.00 | 0.00 | 28 | 1017.5 |
| 20260903032106 | 74 | 206 | 1.0 | 4.0 | 0.00 | 0.00 | 0.00 | 27 | 1017.4 |
| 20260903031606 | 74 | 180 | 0.0 | 5.0 | 0.00 | 0.00 | 0.00 | 26 | 1017.5 |
| 20260903031101 | 74 | 148 | 2.0 | 5.0 | 0.00 | 0.00 | 0.00 | 28 | 1017.3 |
| 20260903030556 | 74 | 148 | 2.0 | 3.0 | 0.00 | 0.00 | 0.00 | 29 | 1017.2 |
| 20260903030052 | 74 | 132 | 2.0 | 4.0 | 0.00 | 0.00 | 0.00 | 30 | 1017.5 |
| 20260903025547 | 74 | 128 | 2.0 | 6.0 | 0.00 | 0.00 | 0.00 | 30 | 1017.1 |
| 20260903025043 | 75 | 169 | 2.0 | 7.0 | 0.00 | 0.00 | 0.00 | 29 | 1017.2 |
| 20260903024542 | 75 | 258 | 2.0 | 7.0 | 0.00 | 0.00 | 0.00 | 28 | 1017.2 |
| 20260903024037 | 75 | 90 | 2.0 | 5.0 | 0.00 | 0.00 | 0.00 | 28 | 1017.1 |
| 20260903023533 | 76 | 114 | 6.0 | 9.0 | 0.00 | 0.00 | 0.00 | 26 | 1017.2 |
| 20260903023028 | 75 | 138 | 0.0 | 5.0 | 0.00 | 0.00 | 0.00 | 26 | 1017.1 |
| 20260903022527 | 75 | 77 | 2.0 | 5.0 | 0.00 | 0.00 | 0.00 | 27 | 1016.7 |
| 20260903022026 | 76 | 184 | 2.0 | 8.0 | 0.00 | 0.00 | 0.00 | 26 | 1016.9 |
| 20260903021521 | 75 | 117 | 3.0 | 5.0 | 0.00 | 0.00 | 0.00 | 26 | 1017.0 |
| 20260903021016 | 76 | 103 | 2.0 | 8.0 | 0.00 | 0.00 | 0.00 | 26 | 1016.7 |
| 20260903020512 | 76 | 173 | 1.0 | 4.0 | 0.00 | 0.00 | 0.00 | 25 | 1017.1 |
| 20260903020011 | 77 | 196 | 2.0 | 5.0 | 0.00 | 0.00 | 0.00 | 22 | 1016.9 |
| 20260903015507 | 77 | 180 | 3.0 | 7.0 | 0.00 | 0.00 | 0.00 | 22 | 1017.0 |
| 20260903015003 | 76 | 154 | 4.0 | 6.0 | 0.00 | 0.00 | 0.00 | 22 | 1017.1 |
| 20260903014501 | 77 | 229 | 4.0 | 4.0 | 0.00 | 0.00 | 0.00 | 23 | 1017.0 |
| 20260903013957 | 77 | 353 | 0.0 | 3.0 | 0.00 | 0.00 | 0.00 | 23 | 1017.0 |
| 20260903013456 | 77 | 216 | 3.0 | 7.0 | 0.00 | 0.00 | 0.00 | 23 | 1017.0 |
| 20260903012955 | 77 | 270 | 0.0 | 5.0 | 0.00 | 0.00 | 0.00 | 22 | 1017.1 |
| 20260903012454 | 78 | 213 | 2.0 | 3.0 | 0.00 | 0.00 | 0.00 | 21 | 1017.3 |
| 20260903011953 | 78 | 297 | 0.0 | 3.0 | 0.00 | 0.00 | 0.00 | 20 | 1017.0 |
| 20260903011448 | 78 | 135 | 3.0 | 4.0 | 0.00 | 0.00 | 0.00 | 20 | 1017.2 |
| 20260903010944 | 78 | 75 | 0.0 | 3.0 | 0.00 | 0.00 | 0.00 | 21 | 1017.3 |
| 20260903010439 | 78 | 252 | 3.0 | 5.0 | 0.00 | 0.00 | 0.00 | 19 | 1017.4 |
| 20260903005937 | 79 | 265 | 2.0 | 3.0 | 0.00 | 0.00 | 0.00 | 21 | 1017.3 |
| 20260903005432 | 79 | 265 | 2.0 | 3.0 | 0.00 | 0.00 | 0.00 | 19 | 1017.3 |
| 20260903004930 | 79 | 249 | 6.0 | 6.0 | 0.00 | 0.00 | 0.00 | 18 | 1017.4 |
| 20260903004429 | 80 | 206 | 3.0 | 6.0 | 0.00 | 0.00 | 0.00 | 18 | 1017.7 |
| 20260903003925 | 80 | 232 | 7.0 | 10.0 | 0.00 | 0.00 | 0.00 | 18 | 1017.5 |
| 20260903003425 | 80 | 209 | 1.0 | 7.0 | 0.00 | 0.00 | 0.00 | 17 | 1017.5 |
| 20260903002920 | 80 | 213 | 10.0 | 11.0 | 0.00 | 0.00 | 0.00 | 16 | 1017.4 |
| 20260903002415 | 80 | 98 | 1.0 | 9.0 | 0.00 | 0.00 | 0.00 | 17 | 1017.4 |
| 20260903001914 | 80 | 172 | 4.0 | 12.0 | 0.00 | 0.00 | 0.00 | 18 | 1017.7 |
| 20260903001409 | 81 | 283 | 1.0 | 7.0 | 0.00 | 0.00 | 0.00 | 21 | 1017.5 |
| 20260903000909 | 82 | 151 | 3.0 | 8.0 | 0.00 | 0.00 | 0.00 | 19 | 1017.9 |
| 20260903000404 | 83 | 230 | 6.0 | 6.0 | 0.00 | 0.00 | 0.00 | 18 | 1017.7 |
| 20260902235903 | 83 | 21 | 3.0 | 10.0 | 0.00 | 0.00 | 0.00 | 17 | 1017.5 |
| 20260902235358 | 83 | 240 | 3.0 | 7.0 | 0.00 | 0.00 | 0.00 | 17 | 1017.7 |
| 20260902234857 | 83 | 249 | 5.0 | 7.0 | 0.00 | 0.00 | 0.00 | 17 | 1017.5 |
| 20260902234357 | 81 | 229 | 5.0 | 7.0 | 0.00 | 0.00 | 0.00 | 18 | 1017.7 |
| 20260902233856 | 82 | 194 | 3.0 | 7.0 | 0.00 | 0.00 | 0.00 | 19 | 1017.7 |
| 20260902233351 | 82 | 260 | 8.0 | 8.0 | 0.00 | 0.00 | 0.00 | 18 | 1017.8 |
| 20260902232849 | 82 | 120 | 1.0 | 7.0 | 0.00 | 0.00 | 0.00 | 18 | 1017.7 |
| 20260902232344 | 82 | 168 | 3.0 | 9.0 | 0.00 | 0.00 | 0.00 | 17 | 1017.8 |
| 20260902231844 | 83 | 270 | 5.0 | 7.0 | 0.00 | 0.00 | 0.00 | 17 | 1017.9 |
| 20260902231339 | 83 | 232 | 4.0 | 13.0 | 0.00 | 0.00 | 0.00 | 16 | 1017.7 |
| 20260902230834 | 82 | 235 | 5.0 | 10.0 | 0.00 | 0.00 | 0.00 | 19 | 1018.1 |
| 20260902230334 | 83 | 225 | 5.0 | 8.0 | 0.00 | 0.00 | 0.00 | 17 | 1018.0 |
| 20260902225833 | 83 | 192 | 4.0 | 13.0 | 0.00 | 0.00 | 0.00 | 18 | 1018.0 |
| 20260902225329 | 83 | 231 | 11.0 | 11.0 | 0.00 | 0.00 | 0.00 | 18 | 1018.0 |
| 20260902224827 | 82 | 180 | 2.0 | 13.0 | 0.00 | 0.00 | 0.00 | 19 | 1018.0 |
| 20260902224322 | 83 | 148 | 2.0 | 15.0 | 0.00 | 0.00 | 0.00 | 20 | 1017.8 |
| 20260902223820 | 82 | 160 | 3.0 | 13.0 | 0.00 | 0.00 | 0.00 | 20 | 1017.9 |
| 20260902223319 | 82 | 152 | 0.0 | 12.0 | 0.00 | 0.00 | 0.00 | 18 | 1018.0 |
| 20260902222813 | 83 | 66 | 3.0 | 20.0 | 0.00 | 0.00 | 0.00 | 19 | 1017.5 |
| 20260902222312 | 84 | 244 | 6.0 | 13.0 | 0.00 | 0.00 | 0.00 | 19 | 1018.3 |
| 20260902221813 | 84 | 229 | 5.0 | 9.0 | 0.00 | 0.00 | 0.00 | 20 | 1018.0 |
| 20260902221312 | 84 | 147 | 4.0 | 9.0 | 0.00 | 0.00 | 0.00 | 20 | 1018.2 |
| 20260902220808 | 84 | 235 | 15.0 | 16.0 | 0.00 | 0.00 | 0.00 | 18 | 1018.2 |
| 20260902220307 | 83 | 219 | 7.0 | 15.0 | 0.00 | 0.00 | 0.00 | 19 | 1018.3 |
| 20260902215802 | 83 | 237 | 3.0 | 14.0 | 0.00 | 0.00 | 0.00 | 20 | 1018.6 |
| 20260902215257 | 83 | 248 | 3.0 | 14.0 | 0.00 | 0.00 | 0.00 | 19 | 1018.6 |
| 20260902214753 | 83 | 227 | 5.0 | 10.0 | 0.00 | 0.00 | 0.00 | 21 | 1018.6 |
| 20260902214252 | 84 | 225 | 0.0 | 12.0 | 0.00 | 0.00 | 0.00 | 21 | 1018.5 |
| 20260902213748 | 83 | 264 | 7.0 | 11.0 | 0.00 | 0.00 | 0.00 | 23 | 1018.6 |
| 20260902213248 | 82 | 229 | 5.0 | 11.0 | 0.00 | 0.00 | 0.00 | 22 | 1018.6 |
| 20260902212747 | 81 | 142 | 5.0 | 12.0 | 0.00 | 0.00 | 0.00 | 22 | 1018.7 |
| 20260902212244 | 81 | 247 | 5.0 | 11.0 | 0.00 | 0.00 | 0.00 | 25 | 1018.6 |
| 20260902211740 | 81 | 197 | 4.0 | 11.0 | 0.00 | 0.00 | 0.00 | 26 | 1018.6 |
| 20260902211236 | 81 | 157 | 3.0 | 10.0 | 0.00 | 0.00 | 0.00 | 30 | 1018.5 |
| 20260902210735 | 81 | 137 | 5.0 | 10.0 | 0.00 | 0.00 | 0.00 | 29 | 1018.7 |
| 20260902210230 | 81 | 133 | 3.0 | 9.0 | 0.00 | 0.00 | 0.00 | 26 | 1018.8 |
| 20260902205728 | 82 | 176 | 4.0 | 11.0 | 0.00 | 0.00 | 0.00 | 29 | 1018.9 |
| 20260902205224 | 80 | 278 | 4.0 | 10.0 | 0.00 | 0.00 | 0.00 | 27 | 1018.9 |
| 20260902204720 | 81 | 176 | 0.0 | 10.0 | 0.00 | 0.00 | 0.00 | 27 | 1018.7 |
| 20260902204215 | 82 | 209 | 5.0 | 8.0 | 0.00 | 0.00 | 0.00 | 26 | 1018.7 |
| 20260902203710 | 83 | 253 | 7.0 | 20.0 | 0.00 | 0.00 | 0.00 | 22 | 1019.0 |
| 20260902203209 | 82 | 232 | 7.0 | 8.0 | 0.00 | 0.00 | 0.00 | 24 | 1018.9 |
| 20260902202704 | 82 | 241 | 3.0 | 12.0 | 0.00 | 0.00 | 0.00 | 24 | 1018.8 |
| 20260902202201 | 83 | 132 | 4.0 | 5.0 | 0.00 | 0.00 | 0.00 | 27 | 1019.2 |
| 20260902201657 | 82 | 213 | 9.0 | 10.0 | 0.00 | 0.00 | 0.00 | 27 | 1019.2 |
| 20260902201156 | 82 | 147 | 4.0 | 13.0 | 0.00 | 0.00 | 0.00 | 27 | 1019.2 |
| 20260902200651 | 81 | 164 | 5.0 | 15.0 | 0.00 | 0.00 | 0.00 | 27 | 1019.2 |
| 20260902200147 | 82 | 214 | 9.0 | 14.0 | 0.00 | 0.00 | 0.00 | 27 | 1019.2 |
| 20260902195643 | 82 | 134 | 6.0 | 18.0 | 0.00 | 0.00 | 0.00 | 26 | 1019.3 |
| 20260902195142 | 81 | 139 | 5.0 | 10.0 | 0.00 | 0.00 | 0.00 | 24 | 1019.4 |
| 20260902194641 | 81 | 154 | 5.0 | 17.0 | 0.00 | 0.00 | 0.00 | 26 | 1019.7 |
| 20260902194136 | 81 | 270 | 0.0 | 11.0 | 0.00 | 0.00 | 0.00 | 30 | 1019.8 |
| 20260902193632 | 80 | 139 | 4.0 | 14.0 | 0.00 | 0.00 | 0.00 | 29 | 1019.6 |
| 20260902193132 | 80 | 133 | 6.0 | 16.0 | 0.00 | 0.00 | 0.00 | 26 | 1019.5 |
| 20260902192631 | 80 | 225 | 3.0 | 14.0 | 0.00 | 0.00 | 0.00 | 29 | 1019.7 |
| 20260902192130 | 80 | 215 | 1.0 | 13.0 | 0.00 | 0.00 | 0.00 | 31 | 1020.1 |
| 20260902191626 | 79 | 137 | 6.0 | 9.0 | 0.00 | 0.00 | 0.00 | 30 | 1020.3 |
| 20260902191125 | 80 | 229 | 5.0 | 14.0 | 0.00 | 0.00 | 0.00 | 31 | 1020.1 |
| 20260902190621 | 79 | 184 | 2.0 | 20.0 | 0.00 | 0.00 | 0.00 | 31 | 1020.0 |
| 20260902190116 | 80 | 220 | 2.0 | 12.0 | 0.00 | 0.00 | 0.00 | 30 | 1020.0 |
| 20260902185612 | 80 | 133 | 3.0 | 11.0 | 0.00 | 0.00 | 0.00 | 29 | 1020.0 |
| 20260902185107 | 80 | 169 | 2.0 | 10.0 | 0.00 | 0.00 | 0.00 | 30 | 1020.2 |
| 20260902184602 | 79 | 175 | 0.0 | 16.0 | 0.00 | 0.00 | 0.00 | 29 | 1020.2 |
| 20260902184057 | 79 | 256 | 6.0 | 11.0 | 0.00 | 0.00 | 0.00 | 30 | 1020.2 |
| 20260902183554 | 79 | 165 | 3.0 | 11.0 | 0.00 | 0.00 | 0.00 | 32 | 1020.5 |
| 20260902183050 | 78 | 221 | 12.0 | 20.0 | 0.00 | 0.00 | 0.00 | 33 | 1020.4 |
| 20260902182546 | 78 | 184 | 2.0 | 12.0 | 0.00 | 0.00 | 0.00 | 35 | 1020.4 |
| 20260902182042 | 79 | 150 | 6.0 | 15.0 | 0.00 | 0.00 | 0.00 | 32 | 1020.4 |
| 20260902181538 | 79 | 147 | 4.0 | 7.0 | 0.00 | 0.00 | 0.00 | 34 | 1020.5 |
| 20260902181037 | 79 | 235 | 6.0 | 14.0 | 0.00 | 0.00 | 0.00 | 36 | 1020.8 |
| 20260902180532 | 78 | 145 | 3.0 | 11.0 | 0.00 | 0.00 | 0.00 | 35 | 1020.5 |
| 20260902180028 | 78 | 253 | 6.0 | 13.0 | 0.00 | 0.00 | 0.00 | 34 | 1020.8 |
| 20260902175528 | 78 | 222 | 9.0 | 11.0 | 0.00 | 0.00 | 0.00 | 34 | 1020.8 |
| 20260902175024 | 78 | 156 | 5.0 | 11.0 | 0.00 | 0.00 | 0.00 | 34 | 1020.6 |
| 20260902174520 | 78 | 104 | 9.0 | 12.0 | 0.00 | 0.00 | 0.00 | 34 | 1021.0 |
| 20260902174015 | 76 | 357 | 3.0 | 11.0 | 0.00 | 0.00 | 0.00 | 38 | 1020.8 |
| 20260902173515 | 78 | 163 | 5.0 | 8.0 | 0.00 | 0.00 | 0.00 | 36 | 1020.8 |
| 20260902173010 | 77 | 143 | 6.0 | 18.0 | 0.00 | 0.00 | 0.00 | 35 | 1021.0 |
| 20260902172509 | 77 | 216 | 3.0 | 17.0 | 0.00 | 0.00 | 0.00 | 38 | 1021.0 |
| 20260902172005 | 77 | 207 | 6.0 | 24.0 | 0.00 | 0.00 | 0.00 | 40 | 1021.0 |
| 20260902171500 | 77 | 192 | 4.0 | 9.0 | 0.00 | 0.00 | 0.00 | 41 | 1021.1 |
| 20260902170956 | 77 | 177 | 9.0 | 11.0 | 0.00 | 0.00 | 0.00 | 39 | 1021.0 |
| 20260902170456 | 75 | 229 | 0.0 | 10.0 | 0.00 | 0.00 | 0.00 | 42 | 1020.9 |
| 20260902165952 | 76 | 319 | 2.0 | 16.0 | 0.00 | 0.00 | 0.00 | 42 | 1020.8 |
| 20260902165451 | 75 | 221 | 2.0 | 13.0 | 0.00 | 0.00 | 0.00 | 42 | 1020.9 |
| 20260902164946 | 77 | 227 | 0.0 | 7.0 | 0.00 | 0.00 | 0.00 | 41 | 1020.9 |
| 20260902164442 | 74 | 125 | 3.0 | 9.0 | 0.00 | 0.00 | 0.00 | 43 | 1020.8 |
| 20260902163940 | 73 | 219 | 9.0 | 9.0 | 0.00 | 0.00 | 0.00 | 43 | 1021.0 |
| 20260902163436 | 73 | 148 | 0.0 | 7.0 | 0.00 | 0.00 | 0.00 | 43 | 1020.9 |
| 20260902162934 | 75 | 151 | 5.0 | 6.0 | 0.00 | 0.00 | 0.00 | 41 | 1020.9 |
| 20260902162429 | 73 | 208 | 4.0 | 9.0 | 0.00 | 0.00 | 0.00 | 44 | 1021.1 |
| 20260902161928 | 73 | 132 | 5.0 | 11.0 | 0.00 | 0.00 | 0.00 | 43 | 1020.9 |
| 20260902161424 | 71 | 122 | 6.0 | 11.0 | 0.00 | 0.00 | 0.00 | 45 | 1020.9 |
| 20260902160920 | 71 | 90 | 1.0 | 5.0 | 0.00 | 0.00 | 0.00 | 47 | 1021.0 |
| 20260902160415 | 71 | 133 | 6.0 | 11.0 | 0.00 | 0.00 | 0.00 | 44 | 1020.8 |